sensor_id;sensor_type;location;lat;lon;timestamp;temperature;humidity
47618;DHT22;33336;36.728;-4.414;2024-01-15T00:03:11;15.70;83.00
47618;DHT22;33336;36.728;-4.414;2024-01-15T00:08:14;15.70;81.90
47618;DHT22;33336;36.728;-4.414;2024-01-15T00:13:18;15.60;80.50
47618;DHT22;33336;36.728;-4.414;2024-01-15T00:18:22;15.60;81.40
47618;DHT22;33336;36.728;-4.414;2024-01-15T00:23:26;15.40;80.70
47618;DHT22;33336;36.728;-4.414;2024-01-15T00:28:29;15.50;82.10
47618;DHT22;33336;36.728;-4.414;2024-01-15T00:33:33;15.20;82.70
47618;DHT22;33336;36.728;-4.414;2024-01-15T00:38:36;15.00;82.00
47618;DHT22;33336;36.728;-4.414;2024-01-15T00:43:40;15.40;82.50
47618;DHT22;33336;36.728;-4.414;2024-01-15T00:48:44;15.60;83.90
47618;DHT22;33336;36.728;-4.414;2024-01-15T00:53:49;15.60;84.70
47618;DHT22;33336;36.728;-4.414;2024-01-15T00:58:52;15.50;85.50
47618;DHT22;33336;36.728;-4.414;2024-01-15T01:03:56;15.60;84.40
47618;DHT22;33336;36.728;-4.414;2024-01-15T01:08:59;15.50;83.40
47618;DHT22;33336;36.728;-4.414;2024-01-15T01:14:03;15.30;84.00
47618;DHT22;33336;36.728;-4.414;2024-01-15T01:19:08;15.70;83.00
47618;DHT22;33336;36.728;-4.414;2024-01-15T01:24:12;15.40;81.70
47618;DHT22;33336;36.728;-4.414;2024-01-15T01:29:15;15.60;81.40
47618;DHT22;33336;36.728;-4.414;2024-01-15T01:34:19;15.10;81.80
47618;DHT22;33336;36.728;-4.414;2024-01-15T01:39:22;15.60;81.60
47618;DHT22;33336;36.728;-4.414;2024-01-15T01:44:26;15.50;82.90
47618;DHT22;33336;36.728;-4.414;2024-01-15T01:49:30;15.60;81.10
47618;DHT22;33336;36.728;-4.414;2024-01-15T01:54:35;15.40;80.70
47618;DHT22;33336;36.728;-4.414;2024-01-15T01:59:39;15.70;80.90
47618;DHT22;33336;36.728;-4.414;2024-01-15T02:04:44;15.80;81.60
47618;DHT22;33336;36.728;-4.414;2024-01-15T02:09:50;15.40;82.50
47618;DHT22;33336;36.728;-4.414;2024-01-15T02:14:53;15.30;82.20
47618;DHT22;33336;36.728;-4.414;2024-01-15T02:19:57;15.50;80.80
47618;DHT22;33336;36.728;-4.414;2024-01-15T02:25:02;15.60;80.70
47618;DHT22;33336;36.728;-4.414;2024-01-15T02:30:07;15.70;80.50
47618;DHT22;33336;36.728;-4.414;2024-01-15T02:35:11;15.70;79.70
47618;DHT22;33336;36.728;-4.414;2024-01-15T02:40:15;15.70;80.20
47618;DHT22;33336;36.728;-4.414;2024-01-15T02:45:19;15.70;79.60
47618;DHT22;33336;36.728;-4.414;2024-01-15T02:50:22;16.10;79.70
47618;DHT22;33336;36.728;-4.414;2024-01-15T02:55:27;16.10;79.80
47618;DHT22;33336;36.728;-4.414;2024-01-15T03:00:31;16.20;79.20
47618;DHT22;33336;36.728;-4.414;2024-01-15T03:05:35;16.20;79.00
47618;DHT22;33336;36.728;-4.414;2024-01-15T03:10:39;16.00;78.00
47618;DHT22;33336;36.728;-4.414;2024-01-15T03:15:43;15.60;77.80
47618;DHT22;33336;36.728;-4.414;2024-01-15T03:20:46;15.90;78.80
47618;DHT22;33336;36.728;-4.414;2024-01-15T03:25:51;15.80;78.80
47618;DHT22;33336;36.728;-4.414;2024-01-15T03:30:54;15.90;78.30
47618;DHT22;33336;36.728;-4.414;2024-01-15T03:35:58;15.70;78.20
47618;DHT22;33336;36.728;-4.414;2024-01-15T03:41:03;16.10;78.50
47618;DHT22;33336;36.728;-4.414;2024-01-15T03:46:07;15.90;79.40
47618;DHT22;33336;36.728;-4.414;2024-01-15T03:51:10;15.90;79.00
47618;DHT22;33336;36.728;-4.414;2024-01-15T03:56:15;15.30;79.40
47618;DHT22;33336;36.728;-4.414;2024-01-15T04:01:18;15.50;77.60
47618;DHT22;33336;36.728;-4.414;2024-01-15T04:06:21;15.30;77.00
47618;DHT22;33336;36.728;-4.414;2024-01-15T04:11:25;15.20;78.20
47618;DHT22;33336;36.728;-4.414;2024-01-15T04:16:29;15.10;78.70
47618;DHT22;33336;36.728;-4.414;2024-01-15T04:21:32;15.10;77.80
47618;DHT22;33336;36.728;-4.414;2024-01-15T04:26:37;15.50;78.00
47618;DHT22;33336;36.728;-4.414;2024-01-15T04:31:40;15.30;77.40
47618;DHT22;33336;36.728;-4.414;2024-01-15T04:36:43;15.30;79.00
47618;DHT22;33336;36.728;-4.414;2024-01-15T04:41:47;15.00;79.80
47618;DHT22;33336;36.728;-4.414;2024-01-15T04:46:50;14.60;83.10
47618;DHT22;33336;36.728;-4.414;2024-01-15T04:51:52;14.90;82.80
47618;DHT22;33336;36.728;-4.414;2024-01-15T04:56:57;15.10;83.00
47618;DHT22;33336;36.728;-4.414;2024-01-15T05:02:00;14.90;83.30
47618;DHT22;33336;36.728;-4.414;2024-01-15T05:07:04;15.20;82.50
47618;DHT22;33336;36.728;-4.414;2024-01-15T05:12:08;15.10;80.50
47618;DHT22;33336;36.728;-4.414;2024-01-15T05:17:12;15.20;78.80
47618;DHT22;33336;36.728;-4.414;2024-01-15T05:22:16;15.20;79.40
47618;DHT22;33336;36.728;-4.414;2024-01-15T05:27:21;15.30;80.60
47618;DHT22;33336;36.728;-4.414;2024-01-15T05:32:24;15.20;81.60
47618;DHT22;33336;36.728;-4.414;2024-01-15T05:37:28;14.70;81.90
47618;DHT22;33336;36.728;-4.414;2024-01-15T05:42:32;14.80;81.30
47618;DHT22;33336;36.728;-4.414;2024-01-15T05:47:35;15.40;80.50
47618;DHT22;33336;36.728;-4.414;2024-01-15T05:52:38;15.10;81.00
47618;DHT22;33336;36.728;-4.414;2024-01-15T05:57:42;15.10;80.70
47618;DHT22;33336;36.728;-4.414;2024-01-15T06:02:45;15.20;79.90
47618;DHT22;33336;36.728;-4.414;2024-01-15T06:07:49;14.60;81.20
47618;DHT22;33336;36.728;-4.414;2024-01-15T06:12:53;15.10;79.40
47618;DHT22;33336;36.728;-4.414;2024-01-15T06:17:57;15.30;79.30
47618;DHT22;33336;36.728;-4.414;2024-01-15T06:23:00;15.20;78.80
47618;DHT22;33336;36.728;-4.414;2024-01-15T06:28:05;15.50;79.60
47618;DHT22;33336;36.728;-4.414;2024-01-15T06:33:08;14.60;82.40
47618;DHT22;33336;36.728;-4.414;2024-01-15T06:38:12;14.90;81.10
47618;DHT22;33336;36.728;-4.414;2024-01-15T06:43:16;14.90;81.60
47618;DHT22;33336;36.728;-4.414;2024-01-15T06:48:20;15.00;80.40
47618;DHT22;33336;36.728;-4.414;2024-01-15T06:53:22;15.40;78.30
47618;DHT22;33336;36.728;-4.414;2024-01-15T06:58:28;15.60;77.90
47618;DHT22;33336;36.728;-4.414;2024-01-15T07:03:33;15.50;78.70
47618;DHT22;33336;36.728;-4.414;2024-01-15T07:08:37;15.80;77.80
47618;DHT22;33336;36.728;-4.414;2024-01-15T07:13:41;15.40;75.60
47618;DHT22;33336;36.728;-4.414;2024-01-15T07:18:45;15.20;76.20
47618;DHT22;33336;36.728;-4.414;2024-01-15T07:23:47;15.30;75.70
47618;DHT22;33336;36.728;-4.414;2024-01-15T07:28:52;15.60;76.00
47618;DHT22;33336;36.728;-4.414;2024-01-15T07:33:55;15.00;75.90
47618;DHT22;33336;36.728;-4.414;2024-01-15T07:38:59;15.00;78.10
47618;DHT22;33336;36.728;-4.414;2024-01-15T07:44:04;15.50;75.90
47618;DHT22;33336;36.728;-4.414;2024-01-15T07:49:08;15.40;75.20
47618;DHT22;33336;36.728;-4.414;2024-01-15T07:54:11;15.10;75.60
47618;DHT22;33336;36.728;-4.414;2024-01-15T07:59:17;15.10;75.60
47618;DHT22;33336;36.728;-4.414;2024-01-15T08:04:20;15.90;76.00
47618;DHT22;33336;36.728;-4.414;2024-01-15T08:09:24;15.70;75.30
47618;DHT22;33336;36.728;-4.414;2024-01-15T08:14:28;15.90;76.50
47618;DHT22;33336;36.728;-4.414;2024-01-15T08:19:32;15.70;75.30
47618;DHT22;33336;36.728;-4.414;2024-01-15T08:24:35;15.90;75.10
47618;DHT22;33336;36.728;-4.414;2024-01-15T08:29:41;15.80;75.40
47618;DHT22;33336;36.728;-4.414;2024-01-15T08:34:44;16.10;75.90
47618;DHT22;33336;36.728;-4.414;2024-01-15T08:39:50;16.10;75.90
47618;DHT22;33336;36.728;-4.414;2024-01-15T08:44:54;16.10;76.10
47618;DHT22;33336;36.728;-4.414;2024-01-15T08:49:58;16.10;76.40
47618;DHT22;33336;36.728;-4.414;2024-01-15T08:55:01;16.40;77.00
47618;DHT22;33336;36.728;-4.414;2024-01-15T09:00:09;16.80;76.80
47618;DHT22;33336;36.728;-4.414;2024-01-15T09:05:12;16.50;76.40
47618;DHT22;33336;36.728;-4.414;2024-01-15T09:10:17;16.90;75.90
47618;DHT22;33336;36.728;-4.414;2024-01-15T09:15:21;16.90;74.90
47618;DHT22;33336;36.728;-4.414;2024-01-15T09:20:25;17.40;75.40
47618;DHT22;33336;36.728;-4.414;2024-01-15T09:25:28;17.90;75.30
47618;DHT22;33336;36.728;-4.414;2024-01-15T09:30:34;17.50;75.00
47618;DHT22;33336;36.728;-4.414;2024-01-15T09:35:37;18.10;74.80
47618;DHT22;33336;36.728;-4.414;2024-01-15T09:40:43;18.50;74.20
47618;DHT22;33336;36.728;-4.414;2024-01-15T09:45:49;18.40;78.70
47618;DHT22;33336;36.728;-4.414;2024-01-15T09:50:54;18.00;80.10
47618;DHT22;33336;36.728;-4.414;2024-01-15T09:55:58;17.70;80.50
47618;DHT22;33336;36.728;-4.414;2024-01-15T10:01:03;17.60;80.80
47618;DHT22;33336;36.728;-4.414;2024-01-15T10:06:07;18.40;79.50
47618;DHT22;33336;36.728;-4.414;2024-01-15T10:11:12;18.30;78.40
47618;DHT22;33336;36.728;-4.414;2024-01-15T10:16:16;19.10;78.90
47618;DHT22;33336;36.728;-4.414;2024-01-15T10:21:20;19.10;77.20
47618;DHT22;33336;36.728;-4.414;2024-01-15T10:26:25;19.80;77.80
47618;DHT22;33336;36.728;-4.414;2024-01-15T10:31:31;19.70;77.50
47618;DHT22;33336;36.728;-4.414;2024-01-15T10:36:33;19.40;78.80
47618;DHT22;33336;36.728;-4.414;2024-01-15T10:41:38;19.50;79.70
47618;DHT22;33336;36.728;-4.414;2024-01-15T10:46:43;19.70;80.70
47618;DHT22;33336;36.728;-4.414;2024-01-15T10:52:06;19.40;80.90
47618;DHT22;33336;36.728;-4.414;2024-01-15T10:57:09;19.90;80.80
47618;DHT22;33336;36.728;-4.414;2024-01-15T11:02:14;19.50;81.20
47618;DHT22;33336;36.728;-4.414;2024-01-15T11:07:21;20.20;80.60
47618;DHT22;33336;36.728;-4.414;2024-01-15T11:18:26;20.40;80.90
47618;DHT22;33336;36.728;-4.414;2024-01-15T11:23:42;21.00;79.90
47618;DHT22;33336;36.728;-4.414;2024-01-15T11:28:48;20.80;79.80
47618;DHT22;33336;36.728;-4.414;2024-01-15T11:33:59;21.20;79.80
47618;DHT22;33336;36.728;-4.414;2024-01-15T11:39:39;21.50;79.30
47618;DHT22;33336;36.728;-4.414;2024-01-15T11:44:50;20.90;79.70
47618;DHT22;33336;36.728;-4.414;2024-01-15T11:50:01;21.50;79.30
47618;DHT22;33336;36.728;-4.414;2024-01-15T12:00:58;21.70;79.30
47618;DHT22;33336;36.728;-4.414;2024-01-15T12:06:05;21.40;78.50
47618;DHT22;33336;36.728;-4.414;2024-01-15T12:11:13;21.10;78.10
47618;DHT22;33336;36.728;-4.414;2024-01-15T12:16:18;21.40;77.80
47618;DHT22;33336;36.728;-4.414;2024-01-15T12:21:59;21.50;77.20
47618;DHT22;33336;36.728;-4.414;2024-01-15T12:27:02;21.90;77.50
47618;DHT22;33336;36.728;-4.414;2024-01-15T12:32:06;22.90;76.90
47618;DHT22;33336;36.728;-4.414;2024-01-15T12:37:11;23.40;75.70
47618;DHT22;33336;36.728;-4.414;2024-01-15T12:42:15;23.70;76.00
47618;DHT22;33336;36.728;-4.414;2024-01-15T12:47:18;23.70;73.90
47618;DHT22;33336;36.728;-4.414;2024-01-15T12:52:26;23.50;72.00
47618;DHT22;33336;36.728;-4.414;2024-01-15T12:57:29;23.50;72.20
47618;DHT22;33336;36.728;-4.414;2024-01-15T13:02:32;23.70;72.00
47618;DHT22;33336;36.728;-4.414;2024-01-15T13:07:36;23.80;72.40
47618;DHT22;33336;36.728;-4.414;2024-01-15T13:12:41;23.20;73.00
47618;DHT22;33336;36.728;-4.414;2024-01-15T13:17:44;23.80;72.10
47618;DHT22;33336;36.728;-4.414;2024-01-15T13:22:49;23.90;72.70
47618;DHT22;33336;36.728;-4.414;2024-01-15T13:27:52;23.50;71.60
47618;DHT22;33336;36.728;-4.414;2024-01-15T13:32:56;24.50;72.10
47618;DHT22;33336;36.728;-4.414;2024-01-15T13:38:06;24.30;72.70
47618;DHT22;33336;36.728;-4.414;2024-01-15T13:43:11;23.90;72.00
47618;DHT22;33336;36.728;-4.414;2024-01-15T13:48:15;24.20;72.80
47618;DHT22;33336;36.728;-4.414;2024-01-15T13:53:22;24.30;74.00
47618;DHT22;33336;36.728;-4.414;2024-01-15T13:58:24;23.50;73.90
47618;DHT22;33336;36.728;-4.414;2024-01-15T14:03:29;23.50;73.80
47618;DHT22;33336;36.728;-4.414;2024-01-15T14:08:33;24.10;75.20
47618;DHT22;33336;36.728;-4.414;2024-01-15T14:13:37;24.10;74.60
47618;DHT22;33336;36.728;-4.414;2024-01-15T14:18:39;24.60;75.30
47618;DHT22;33336;36.728;-4.414;2024-01-15T14:23:46;24.90;75.50
47618;DHT22;33336;36.728;-4.414;2024-01-15T14:28:48;24.80;74.80
47618;DHT22;33336;36.728;-4.414;2024-01-15T14:33:52;25.00;75.70
47618;DHT22;33336;36.728;-4.414;2024-01-15T14:38:57;25.50;75.70
47618;DHT22;33336;36.728;-4.414;2024-01-15T14:44:01;24.80;74.90
47618;DHT22;33336;36.728;-4.414;2024-01-15T14:49:04;25.00;75.90
47618;DHT22;33336;36.728;-4.414;2024-01-15T14:54:10;25.20;76.00
47618;DHT22;33336;36.728;-4.414;2024-01-15T14:59:13;24.40;76.50
47618;DHT22;33336;36.728;-4.414;2024-01-15T15:04:16;25.20;76.90
47618;DHT22;33336;36.728;-4.414;2024-01-15T15:09:21;25.70;76.70
47618;DHT22;33336;36.728;-4.414;2024-01-15T15:14:25;25.40;76.50
47618;DHT22;33336;36.728;-4.414;2024-01-15T15:19:28;24.20;79.10
47618;DHT22;33336;36.728;-4.414;2024-01-15T15:24:34;24.50;80.30
47618;DHT22;33336;36.728;-4.414;2024-01-15T15:29:36;23.70;82.20
47618;DHT22;33336;36.728;-4.414;2024-01-15T15:34:40;23.00;84.70
47618;DHT22;33336;36.728;-4.414;2024-01-15T15:39:45;23.10;84.90
47618;DHT22;33336;36.728;-4.414;2024-01-15T15:44:49;23.10;85.90
47618;DHT22;33336;36.728;-4.414;2024-01-15T15:49:54;23.90;85.10
47618;DHT22;33336;36.728;-4.414;2024-01-15T15:55:00;23.90;84.90
47618;DHT22;33336;36.728;-4.414;2024-01-15T16:00:05;24.00;85.20
47618;DHT22;33336;36.728;-4.414;2024-01-15T16:05:09;23.90;86.10
47618;DHT22;33336;36.728;-4.414;2024-01-15T16:10:14;24.00;86.60
47618;DHT22;33336;36.728;-4.414;2024-01-15T16:15:21;24.20;86.30
47618;DHT22;33336;36.728;-4.414;2024-01-15T16:20:24;24.20;87.10
47618;DHT22;33336;36.728;-4.414;2024-01-15T16:25:30;24.30;88.20
47618;DHT22;33336;36.728;-4.414;2024-01-15T16:30:33;24.60;87.10
47618;DHT22;33336;36.728;-4.414;2024-01-15T16:35:36;24.20;87.60
47618;DHT22;33336;36.728;-4.414;2024-01-15T16:40:41;24.10;88.00
47618;DHT22;33336;36.728;-4.414;2024-01-15T16:45:46;23.00;90.10
47618;DHT22;33336;36.728;-4.414;2024-01-15T16:50:48;22.80;90.30
47618;DHT22;33336;36.728;-4.414;2024-01-15T16:55:56;22.60;90.50
47618;DHT22;33336;36.728;-4.414;2024-01-15T17:00:59;23.10;90.10
47618;DHT22;33336;36.728;-4.414;2024-01-15T17:06:04;23.10;90.10
47618;DHT22;33336;36.728;-4.414;2024-01-15T17:11:08;22.90;90.30
47618;DHT22;33336;36.728;-4.414;2024-01-15T17:16:12;22.90;90.40
47618;DHT22;33336;36.728;-4.414;2024-01-15T17:21:15;22.30;90.70
47618;DHT22;33336;36.728;-4.414;2024-01-15T17:26:21;22.20;91.00
47618;DHT22;33336;36.728;-4.414;2024-01-15T17:31:23;22.50;90.80
47618;DHT22;33336;36.728;-4.414;2024-01-15T17:36:27;22.80;90.70
47618;DHT22;33336;36.728;-4.414;2024-01-15T17:41:32;22.40;91.00
47618;DHT22;33336;36.728;-4.414;2024-01-15T17:46:36;22.30;91.30
47618;DHT22;33336;36.728;-4.414;2024-01-15T17:51:39;22.40;91.40
47618;DHT22;33336;36.728;-4.414;2024-01-15T17:56:45;21.90;92.20
47618;DHT22;33336;36.728;-4.414;2024-01-15T18:01:47;22.20;92.10
47618;DHT22;33336;36.728;-4.414;2024-01-15T18:06:53;22.20;92.00
47618;DHT22;33336;36.728;-4.414;2024-01-15T18:11:58;21.90;92.40
47618;DHT22;33336;36.728;-4.414;2024-01-15T18:17:04;21.80;92.60
47618;DHT22;33336;36.728;-4.414;2024-01-15T18:22:06;21.30;93.10
47618;DHT22;33336;36.728;-4.414;2024-01-15T18:27:11;21.10;93.60
47618;DHT22;33336;36.728;-4.414;2024-01-15T18:32:14;21.00;93.70
47618;DHT22;33336;36.728;-4.414;2024-01-15T18:37:17;20.80;94.10
47618;DHT22;33336;36.728;-4.414;2024-01-15T18:42:22;20.90;94.00
47618;DHT22;33336;36.728;-4.414;2024-01-15T18:47:25;21.20;93.80
47618;DHT22;33336;36.728;-4.414;2024-01-15T18:52:28;21.30;93.90
47618;DHT22;33336;36.728;-4.414;2024-01-15T18:57:33;20.60;95.00
47618;DHT22;33336;36.728;-4.414;2024-01-15T19:02:36;20.50;95.20
47618;DHT22;33336;36.728;-4.414;2024-01-15T19:07:39;20.90;94.60
47618;DHT22;33336;36.728;-4.414;2024-01-15T19:12:45;20.70;95.20
47618;DHT22;33336;36.728;-4.414;2024-01-15T19:17:49;20.80;95.40
47618;DHT22;33336;36.728;-4.414;2024-01-15T19:22:52;20.50;96.20
47618;DHT22;33336;36.728;-4.414;2024-01-15T19:28:00;20.10;96.60
47618;DHT22;33336;36.728;-4.414;2024-01-15T19:33:05;20.30;96.10
47618;DHT22;33336;36.728;-4.414;2024-01-15T19:38:08;20.40;95.90
47618;DHT22;33336;36.728;-4.414;2024-01-15T19:43:13;20.10;96.20
47618;DHT22;33336;36.728;-4.414;2024-01-15T19:48:16;19.90;96.60
47618;DHT22;33336;36.728;-4.414;2024-01-15T19:53:21;20.30;96.00
47618;DHT22;33336;36.728;-4.414;2024-01-15T19:58:26;20.20;95.80
47618;DHT22;33336;36.728;-4.414;2024-01-15T20:03:29;20.30;95.70
47618;DHT22;33336;36.728;-4.414;2024-01-15T20:08:32;20.10;95.80
47618;DHT22;33336;36.728;-4.414;2024-01-15T20:13:36;20.30;95.60
47618;DHT22;33336;36.728;-4.414;2024-01-15T20:18:42;20.50;95.30
47618;DHT22;33336;36.728;-4.414;2024-01-15T20:23:45;20.70;95.00
47618;DHT22;33336;36.728;-4.414;2024-01-15T20:28:50;20.60;95.10
47618;DHT22;33336;36.728;-4.414;2024-01-15T20:33:53;20.50;95.30
47618;DHT22;33336;36.728;-4.414;2024-01-15T20:38:58;20.40;95.80
47618;DHT22;33336;36.728;-4.414;2024-01-15T20:44:02;20.40;95.80
47618;DHT22;33336;36.728;-4.414;2024-01-15T20:49:05;20.40;95.90
47618;DHT22;33336;36.728;-4.414;2024-01-15T20:54:08;20.70;95.60
47618;DHT22;33336;36.728;-4.414;2024-01-15T20:59:13;20.30;96.10
47618;DHT22;33336;36.728;-4.414;2024-01-15T21:04:16;19.90;96.90
47618;DHT22;33336;36.728;-4.414;2024-01-15T21:09:19;19.90;96.90
47618;DHT22;33336;36.728;-4.414;2024-01-15T21:14:25;20.10;96.80
47618;DHT22;33336;36.728;-4.414;2024-01-15T21:19:28;19.80;97.50
47618;DHT22;33336;36.728;-4.414;2024-01-15T21:24:32;20.10;97.20
47618;DHT22;33336;36.728;-4.414;2024-01-15T21:29:37;20.00;97.20
47618;DHT22;33336;36.728;-4.414;2024-01-15T21:34:40;19.80;97.90
47618;DHT22;33336;36.728;-4.414;2024-01-15T21:39:43;19.80;97.90
47618;DHT22;33336;36.728;-4.414;2024-01-15T21:44:47;20.10;97.30
47618;DHT22;33336;36.728;-4.414;2024-01-15T21:49:51;20.00;97.60
47618;DHT22;33336;36.728;-4.414;2024-01-15T21:54:54;20.10;97.40
47618;DHT22;33336;36.728;-4.414;2024-01-15T21:59:59;19.90;97.70
47618;DHT22;33336;36.728;-4.414;2024-01-15T22:05:06;20.10;97.60
47618;DHT22;33336;36.728;-4.414;2024-01-15T22:10:11;20.00;98.10
47618;DHT22;33336;36.728;-4.414;2024-01-15T22:15:15;19.80;98.50
47618;DHT22;33336;36.728;-4.414;2024-01-15T22:20:18;19.50;99.00
47618;DHT22;33336;36.728;-4.414;2024-01-15T22:25:21;19.10;99.70
47618;DHT22;33336;36.728;-4.414;2024-01-15T22:30:26;19.20;99.70
47618;DHT22;33336;36.728;-4.414;2024-01-15T22:35:28;19.00;99.90
47618;DHT22;33336;36.728;-4.414;2024-01-15T22:40:31;18.90;99.90
47618;DHT22;33336;36.728;-4.414;2024-01-15T22:45:35;19.00;99.90
47618;DHT22;33336;36.728;-4.414;2024-01-15T22:50:39;19.40;99.40
47618;DHT22;33336;36.728;-4.414;2024-01-15T22:55:42;19.10;99.70
47618;DHT22;33336;36.728;-4.414;2024-01-15T23:00:46;18.90;99.90
47618;DHT22;33336;36.728;-4.414;2024-01-15T23:05:50;19.10;99.80
47618;DHT22;33336;36.728;-4.414;2024-01-15T23:10:54;19.00;99.90
47618;DHT22;33336;36.728;-4.414;2024-01-15T23:16:00;19.20;99.60
47618;DHT22;33336;36.728;-4.414;2024-01-15T23:21:03;19.10;99.90
47618;DHT22;33336;36.728;-4.414;2024-01-15T23:26:06;19.30;99.50
47618;DHT22;33336;36.728;-4.414;2024-01-15T23:31:11;19.00;99.90
47618;DHT22;33336;36.728;-4.414;2024-01-15T23:36:14;19.30;99.70
47618;DHT22;33336;36.728;-4.414;2024-01-15T23:41:17;19.30;99.70
47618;DHT22;33336;36.728;-4.414;2024-01-15T23:46:22;19.30;99.60
47618;DHT22;33336;36.728;-4.414;2024-01-15T23:51:25;19.10;99.90
47618;DHT22;33336;36.728;-4.414;2024-01-15T23:56:28;19.20;99.70
